Terminal Aerodrome Forecast
Issued by NWS Wilmington, OH

Current Version | Previous Version | Graphics & Text | Print | Product List | Glossary On
Versions: 1 2 3 4 5 6 7 8 9 10 11 12 13 14 15 16 17 18 19 20 21
000
FTUS41 KILN 211124
TAFILN
TAF
KILN 211124Z 2112/2212 27009KT P6SM VCSH SCT035 OVC080
     FM211300 27008KT 4SM -TSRA SCT015 OVC025CB
      TEMPO 2113/2115 +TSRA BR OVC015CB
     FM211600 29009KT P6SM -SHRA BKN025
     FM211800 25005KT P6SM BKN029
     FM212000 27006KT P6SM BKN035
     FM220200 17003KT P6SM VCSH BKN035=

USA.gov is the U.S. government's official web portal to all federal, state and local government web resources and services.